createdAt,value
2017-06-14T00:02:21.099Z,7.53
2017-06-14T00:04:48.582Z,7.70
2017-06-14T00:07:16.842Z,7.50
2017-06-14T00:09:44.331Z,8.73
2017-06-14T00:12:11.835Z,7.77
2017-06-14T00:14:39.319Z,8.10
2017-06-14T00:17:06.845Z,11.50
2017-06-14T00:19:34.331Z,10.03
2017-06-14T00:22:03.415Z,11.87
2017-06-14T00:24:30.896Z,9.50
2017-06-14T00:26:58.404Z,8.83
2017-06-14T00:29:25.891Z,9.53
2017-06-14T00:31:53.412Z,12.20
2017-06-14T00:34:20.897Z,8.13
2017-06-14T00:36:48.386Z,14.63
2017-06-14T00:39:15.886Z,8.03
2017-06-14T00:41:43.382Z,8.70
2017-06-14T00:44:10.879Z,9.87
2017-06-14T00:46:38.363Z,9.77
2017-06-14T00:49:05.865Z,10.03
2017-06-14T00:51:33.351Z,10.40
2017-06-14T00:54:00.908Z,10.40
2017-06-14T00:56:28.391Z,10.93
2017-06-14T00:58:56.650Z,9.80
2017-06-14T01:01:24.148Z,12.10
2017-06-14T01:03:51.664Z,10.77
2017-06-14T01:06:19.141Z,9.97
2017-06-14T01:08:47.394Z,10.10
2017-06-14T01:11:14.894Z,9.67
2017-06-14T01:13:42.383Z,11.10
2017-06-14T01:16:09.886Z,12.33
2017-06-14T01:18:37.370Z,9.20
2017-06-14T01:21:04.879Z,13.17
2017-06-14T01:23:33.136Z,12.13
2017-06-14T01:26:01.419Z,10.07
2017-06-14T01:28:29.669Z,11.20
2017-06-14T01:30:57.171Z,10.00
2017-06-14T01:33:24.658Z,9.73
2017-06-14T01:35:52.154Z,11.00
2017-06-14T01:38:19.642Z,10.03
2017-06-14T01:40:47.126Z,10.40
2017-06-14T01:43:14.634Z,11.47
2017-06-14T01:45:42.887Z,10.30
2017-06-14T01:48:10.383Z,12.13
2017-06-14T01:50:37.875Z,10.70
2017-06-14T01:53:05.374Z,12.43
2017-06-14T01:55:32.864Z,11.07
2017-06-14T01:58:00.372Z,10.33
2017-06-14T02:00:27.875Z,11.80
2017-06-14T02:02:55.379Z,10.97
2017-06-14T02:05:22.863Z,11.83
2017-06-14T02:07:50.363Z,11.00
2017-06-14T02:10:17.867Z,12.27
2017-06-14T02:12:45.367Z,11.27
2017-06-14T02:15:12.860Z,12.10
2017-06-14T02:17:40.383Z,11.33
2017-06-14T02:20:07.854Z,12.73
2017-06-14T02:22:35.366Z,12.93
2017-06-14T02:25:02.859Z,11.20
2017-06-14T02:27:30.347Z,11.73
2017-06-14T02:29:57.850Z,12.60
2017-06-14T02:32:25.353Z,12.17
2017-06-14T02:34:52.859Z,11.60
2017-06-14T02:37:20.339Z,12.57
2017-06-14T02:39:47.844Z,16.93
2017-06-14T02:42:15.353Z,12.57
2017-06-14T02:44:42.847Z,12.83
2017-06-14T02:47:10.335Z,12.27
2017-06-14T02:49:37.847Z,15.00
2017-06-14T02:52:05.334Z,12.30
2017-06-14T02:54:32.816Z,12.30
2017-06-14T02:57:00.318Z,12.93
2017-06-14T02:59:27.811Z,13.90
2017-06-14T03:01:55.318Z,16.73
2017-06-14T03:04:22.801Z,12.93
2017-06-14T03:06:50.305Z,12.40
2017-06-14T03:09:18.558Z,13.63
2017-06-14T03:11:46.063Z,12.57
2017-06-14T03:14:13.558Z,12.70
2017-06-14T03:16:41.067Z,14.30
2017-06-14T03:19:08.569Z,13.17
2017-06-14T03:21:36.075Z,11.80
2017-06-14T03:24:03.565Z,12.27
2017-06-14T03:26:31.075Z,12.93
2017-06-14T03:28:59.343Z,13.83
2017-06-14T03:31:27.600Z,14.17
2017-06-14T03:33:55.094Z,11.70
2017-06-14T03:36:22.580Z,10.70
2017-06-14T03:38:50.074Z,12.40
2017-06-14T03:41:18.335Z,11.93
2017-06-14T03:43:45.850Z,12.00
2017-06-14T03:46:13.351Z,12.30
2017-06-14T03:48:40.847Z,11.50
2017-06-14T03:51:08.335Z,11.80
2017-06-14T03:53:35.835Z,12.60
2017-06-14T03:56:04.087Z,12.10
2017-06-14T03:58:31.594Z,10.87
2017-06-14T04:00:59.083Z,12.67
2017-06-14T04:03:26.580Z,10.83
2017-06-14T04:05:54.861Z,11.93
2017-06-14T04:08:22.427Z,11.07
2017-06-14T04:10:50.023Z,12.70
2017-06-14T04:13:17.514Z,11.63
2017-06-14T04:15:45.024Z,15.07
2017-06-14T04:18:12.511Z,11.00
2017-06-14T04:20:40.014Z,11.43
2017-06-14T04:23:07.506Z,16.20
2017-06-14T04:25:35.030Z,11.50
2017-06-14T04:28:02.529Z,11.83
2017-06-14T04:30:30.028Z,11.37
2017-06-14T04:32:57.527Z,10.40
2017-06-14T04:35:25.014Z,14.03
2017-06-14T04:37:52.519Z,12.40
2017-06-14T04:40:20.019Z,9.83
2017-06-14T04:42:47.520Z,13.37
2017-06-14T04:45:15.000Z,11.37
2017-06-14T04:47:42.503Z,9.67
2017-06-14T04:50:10.767Z,10.90
2017-06-14T04:52:38.267Z,10.97
2017-06-14T04:55:05.750Z,10.93
2017-06-14T04:57:33.294Z,10.07
2017-06-14T05:00:00.770Z,11.20
2017-06-14T05:02:28.262Z,10.90
2017-06-14T05:04:56.497Z,10.20
2017-06-14T05:07:23.975Z,9.60
2017-06-14T05:09:51.478Z,9.83
2017-06-14T05:12:18.967Z,11.70
2017-06-14T05:14:46.466Z,10.00
2017-06-14T05:17:14.722Z,10.57
2017-06-14T05:19:42.990Z,10.80
2017-06-14T05:22:10.462Z,9.97
2017-06-14T05:24:38.725Z,9.50
2017-06-14T05:27:06.214Z,12.50
2017-06-14T05:29:33.738Z,9.80
2017-06-14T05:32:01.990Z,10.97
2017-06-14T05:34:29.464Z,10.17
2017-06-14T05:36:57.736Z,11.30
2017-06-14T05:39:25.975Z,9.97
2017-06-14T05:41:53.470Z,10.27
2017-06-14T05:44:21.723Z,11.43
2017-06-14T05:46:49.226Z,10.97
2017-06-14T05:49:16.703Z,10.17
2017-06-14T05:51:44.196Z,9.67
2017-06-14T05:54:11.675Z,11.83
2017-06-14T05:56:39.176Z,12.10
2017-06-14T05:59:06.658Z,10.40
2017-06-14T06:01:34.163Z,11.30
2017-06-14T06:04:01.638Z,9.87
2017-06-14T06:06:29.119Z,11.17
2017-06-14T06:08:56.611Z,10.57
2017-06-14T06:11:24.090Z,11.00
2017-06-14T06:13:51.591Z,10.50
2017-06-14T06:16:19.061Z,8.73
2017-06-14T06:18:47.317Z,8.80
2017-06-14T06:21:14.799Z,8.53
2017-06-14T06:23:43.062Z,9.23
2017-06-14T06:26:11.310Z,8.63
2017-06-14T06:28:38.794Z,8.60
2017-06-14T06:31:07.034Z,9.37
2017-06-14T06:33:34.507Z,9.63
2017-06-14T06:36:02.001Z,8.83
2017-06-14T06:38:29.483Z,9.03
2017-06-14T06:40:56.979Z,8.90
2017-06-14T06:43:24.458Z,11.07
2017-06-14T06:45:51.946Z,8.13
2017-06-14T06:48:19.427Z,7.77
2017-06-14T06:50:46.917Z,7.50
2017-06-14T06:53:14.399Z,10.10
2017-06-14T06:55:41.892Z,7.50
2017-06-14T06:58:09.372Z,6.97
2017-06-14T07:00:37.631Z,8.03
2017-06-14T07:03:05.109Z,7.97
2017-06-14T07:05:32.587Z,8.60
2017-06-14T07:08:00.075Z,7.77
2017-06-14T07:10:27.545Z,8.00
2017-06-14T07:12:55.039Z,8.07
2017-06-14T07:15:22.514Z,8.20
2017-06-14T07:17:50.007Z,7.93
2017-06-14T07:20:17.486Z,7.00
2017-06-14T07:22:45.738Z,8.30
2017-06-14T07:25:13.214Z,7.80
2017-06-14T07:27:40.715Z,6.70
2017-06-14T07:30:08.206Z,7.40
2017-06-14T07:32:36.454Z,7.57
2017-06-14T07:35:03.946Z,7.70
2017-06-14T07:37:32.192Z,7.53
2017-06-14T07:39:59.692Z,8.63
2017-06-14T07:42:27.182Z,8.47
2017-06-14T07:44:54.667Z,8.30
2017-06-14T07:47:22.138Z,7.30
2017-06-14T07:49:50.395Z,7.83
2017-06-14T07:52:17.867Z,9.10
2017-06-14T07:54:46.130Z,8.00
2017-06-14T07:57:13.603Z,10.83
2017-06-14T07:59:41.102Z,7.87
2017-06-14T08:02:08.579Z,7.70
2017-06-14T08:04:36.077Z,7.97
2017-06-14T08:07:03.573Z,8.00
2017-06-14T08:09:31.057Z,6.90
2017-06-14T08:11:59.294Z,8.87
2017-06-14T08:14:26.782Z,6.60
2017-06-14T08:16:54.251Z,6.43
2017-06-14T08:19:22.490Z,7.60
2017-06-14T08:21:49.981Z,7.87
2017-06-14T08:24:17.454Z,7.00
2017-06-14T08:26:44.940Z,6.87
2017-06-14T08:29:12.412Z,6.37
2017-06-14T08:31:39.923Z,6.70
2017-06-14T08:34:07.396Z,8.00
2017-06-14T08:36:34.959Z,6.70
2017-06-14T08:39:02.431Z,8.13
2017-06-14T08:41:29.920Z,10.13
2017-06-14T08:43:58.158Z,8.50
2017-06-14T08:46:25.650Z,7.50
2017-06-14T08:48:53.123Z,6.17
2017-06-14T08:51:20.594Z,7.40
2017-06-14T08:53:48.086Z,7.13
2017-06-14T08:56:15.566Z,8.37
2017-06-14T08:58:43.818Z,8.10
2017-06-14T09:01:12.063Z,7.80
2017-06-14T09:03:39.550Z,6.63
2017-06-14T09:06:07.794Z,8.60
2017-06-14T09:08:35.284Z,7.03
2017-06-14T09:11:03.526Z,7.47
2017-06-14T09:13:31.018Z,6.77
2017-06-14T09:15:58.501Z,6.40
2017-06-14T09:18:25.994Z,5.83
2017-06-14T09:20:53.471Z,7.17
2017-06-14T09:23:21.741Z,6.73
2017-06-14T09:25:49.215Z,7.20
2017-06-14T09:28:16.714Z,7.27
2017-06-14T09:30:44.195Z,7.53
2017-06-14T09:33:11.667Z,7.70
2017-06-14T09:35:39.167Z,8.87
2017-06-14T09:38:06.636Z,8.83
2017-06-14T09:40:34.127Z,7.47
2017-06-14T09:43:02.360Z,8.90
2017-06-14T09:45:29.855Z,7.60
2017-06-14T09:47:58.103Z,9.63
2017-06-14T09:50:25.594Z,8.10
2017-06-14T09:52:53.079Z,10.30
2017-06-14T09:55:20.582Z,8.30
2017-06-14T09:57:48.054Z,8.70
2017-06-14T10:00:15.533Z,7.73
2017-06-14T10:02:43.035Z,9.57
2017-06-14T10:05:10.503Z,7.83
2017-06-14T10:07:38.763Z,7.70
2017-06-14T10:10:06.245Z,14.03
2017-06-14T10:12:34.498Z,8.67
2017-06-14T10:15:01.966Z,6.87
2017-06-14T10:17:30.234Z,6.70
2017-06-14T10:19:58.475Z,7.57
2017-06-14T10:22:25.968Z,6.60
2017-06-14T10:24:54.207Z,7.90
2017-06-14T10:27:21.707Z,8.67
2017-06-14T10:29:49.176Z,6.87
2017-06-14T10:32:16.667Z,7.30
2017-06-14T10:34:44.134Z,6.80
2017-06-14T10:37:11.610Z,24.47
2017-06-14T10:39:39.874Z,6.77
2017-06-14T10:42:08.118Z,7.73
2017-06-14T10:44:35.615Z,6.03
2017-06-14T10:47:03.855Z,8.67
2017-06-14T10:49:31.345Z,9.30
2017-06-14T10:51:59.582Z,8.83
2017-06-14T10:54:27.086Z,9.07
2017-06-14T10:56:54.564Z,10.53
2017-06-14T10:59:22.035Z,8.77
2017-06-14T11:01:49.517Z,7.80
2017-06-14T11:04:16.996Z,7.10
2017-06-14T11:06:44.491Z,7.33
2017-06-14T11:09:11.971Z,13.40
2017-06-14T11:11:39.477Z,8.03
2017-06-14T11:14:06.947Z,12.20
2017-06-14T11:16:34.439Z,7.13
2017-06-14T11:19:01.910Z,8.23
2017-06-14T11:21:30.167Z,7.10
2017-06-14T11:23:57.638Z,7.10
2017-06-14T11:26:25.908Z,6.83
2017-06-14T11:28:54.147Z,6.47
2017-06-14T11:31:21.638Z,6.50
2017-06-14T11:33:49.874Z,8.33
2017-06-14T11:36:17.347Z,8.70
2017-06-14T11:38:44.846Z,7.00
2017-06-14T11:41:12.325Z,7.00
2017-06-14T11:43:39.818Z,6.27
2017-06-14T11:46:07.294Z,8.87
2017-06-14T11:48:34.787Z,7.63
2017-06-14T11:51:02.266Z,7.43
2017-06-14T11:53:29.754Z,5.90
2017-06-14T11:55:57.226Z,6.13
2017-06-14T11:58:24.714Z,7.00
2017-06-14T12:00:52.187Z,5.77
2017-06-14T12:03:19.686Z,5.93
2017-06-14T12:05:47.162Z,8.60
2017-06-14T12:08:14.651Z,5.47
2017-06-14T12:10:42.135Z,6.63
2017-06-14T12:13:09.650Z,17.37
2017-06-14T12:15:37.122Z,8.97
2017-06-14T12:18:04.614Z,8.50
2017-06-14T12:20:32.098Z,8.80
2017-06-14T12:22:59.571Z,7.43
2017-06-14T12:25:27.065Z,7.23
2017-06-14T12:27:54.541Z,7.73
2017-06-14T12:30:22.031Z,6.90
2017-06-14T12:32:49.502Z,7.10
2017-06-14T12:35:16.995Z,9.73
2017-06-14T12:37:44.466Z,6.83
2017-06-14T12:40:11.950Z,6.93
2017-06-14T12:42:39.428Z,6.77
2017-06-14T12:45:07.682Z,5.80
2017-06-14T12:47:35.158Z,6.83
2017-06-14T12:50:03.414Z,7.70
2017-06-14T12:52:30.891Z,6.10
2017-06-14T12:54:59.152Z,5.43
2017-06-14T12:57:27.390Z,5.90
2017-06-14T12:59:54.878Z,6.47
2017-06-14T13:02:22.347Z,5.60
2017-06-14T13:04:50.602Z,6.57
2017-06-14T13:07:18.075Z,6.20
2017-06-14T13:09:46.334Z,6.70
2017-06-14T13:12:13.809Z,6.33
2017-06-14T13:14:41.306Z,6.20
2017-06-14T13:17:08.782Z,5.10
2017-06-14T13:19:36.270Z,6.10
2017-06-14T13:22:03.746Z,6.40
2017-06-14T13:24:31.244Z,5.20
2017-06-14T13:26:59.082Z,6.27
2017-06-14T13:29:26.580Z,4.80
2017-06-14T13:31:54.067Z,5.33
2017-06-14T13:34:21.542Z,5.40
2017-06-14T13:36:49.022Z,5.77
2017-06-14T13:39:16.495Z,6.53
2017-06-14T13:41:43.989Z,6.20
2017-06-14T13:44:11.470Z,5.17
2017-06-14T13:46:38.959Z,4.43
2017-06-14T13:49:06.422Z,5.37
2017-06-14T13:51:33.919Z,5.17
2017-06-14T13:54:01.390Z,5.53
2017-06-14T13:56:28.880Z,5.33
2017-06-14T13:58:57.135Z,5.53
2017-06-14T14:01:24.631Z,6.07
2017-06-14T14:03:52.162Z,5.87
2017-06-14T14:06:20.434Z,6.03
2017-06-14T14:08:48.678Z,6.33
2017-06-14T14:11:16.166Z,6.33
2017-06-14T14:13:44.406Z,5.27
2017-06-14T14:16:11.906Z,6.20
2017-06-14T14:18:39.382Z,5.40
2017-06-14T14:21:06.926Z,6.20
2017-06-14T14:23:34.402Z,6.20
2017-06-14T14:26:01.879Z,5.27
2017-06-14T14:28:29.371Z,8.10
2017-06-14T14:30:57.618Z,5.73
2017-06-14T14:33:25.122Z,5.43
2017-06-14T14:35:52.623Z,6.97
2017-06-14T14:38:20.118Z,5.87
2017-06-14T14:40:47.603Z,6.20
2017-06-14T14:43:15.101Z,5.63
2017-06-14T14:45:42.580Z,5.90
2017-06-14T14:48:10.046Z,4.73
2017-06-14T14:50:37.535Z,6.27
2017-06-14T14:53:05.035Z,5.40
2017-06-14T14:55:32.530Z,5.10
2017-06-14T14:58:00.012Z,5.77
2017-06-14T15:00:27.518Z,5.27
2017-06-14T15:02:54.986Z,4.90
2017-06-14T15:05:22.482Z,6.10
2017-06-14T15:07:49.966Z,5.30
2017-06-14T15:10:17.456Z,6.20
2017-06-14T15:12:44.952Z,5.03
2017-06-14T15:15:12.438Z,5.40
2017-06-14T15:17:39.936Z,23.83
2017-06-14T15:20:07.412Z,5.57
2017-06-14T15:22:34.904Z,7.90
2017-06-14T15:25:02.380Z,5.60
2017-06-14T15:27:29.878Z,5.90
2017-06-14T15:29:57.346Z,6.00
2017-06-14T15:32:25.610Z,5.77
2017-06-14T15:34:53.078Z,6.20
2017-06-14T15:37:20.570Z,5.47
2017-06-14T15:39:48.047Z,5.70
2017-06-14T15:42:15.525Z,6.07
2017-06-14T15:44:43.028Z,6.43
2017-06-14T15:47:10.505Z,6.20
2017-06-14T15:49:38.007Z,6.67
2017-06-14T15:52:05.504Z,5.90
2017-06-14T15:54:33.016Z,8.07
2017-06-14T15:57:01.268Z,5.70
2017-06-14T15:59:28.766Z,6.87
2017-06-14T16:01:56.248Z,6.07
2017-06-14T16:04:24.294Z,5.60
2017-06-14T16:06:51.792Z,5.37
2017-06-14T16:09:19.278Z,6.23
2017-06-14T16:11:47.550Z,5.40
2017-06-14T16:14:15.031Z,6.70
2017-06-14T16:16:42.518Z,6.10
2017-06-14T16:19:09.986Z,6.60
2017-06-14T16:21:37.478Z,6.13
2017-06-14T16:24:04.956Z,5.87
2017-06-14T16:26:32.435Z,6.90
2017-06-14T16:28:59.957Z,5.80
2017-06-14T16:31:27.438Z,6.07
2017-06-14T16:33:54.926Z,6.70
2017-06-14T16:36:22.403Z,5.70
2017-06-14T16:38:49.914Z,5.83
2017-06-14T16:41:17.383Z,9.97
2017-06-14T16:43:45.889Z,6.30
2017-06-14T16:46:13.482Z,5.97
2017-06-14T16:48:42.036Z,5.80
2017-06-14T16:51:09.556Z,5.43
2017-06-14T16:53:37.126Z,5.30
2017-06-14T16:56:05.474Z,6.13
2017-06-14T16:58:33.026Z,5.20
2017-06-14T17:01:00.701Z,6.43
2017-06-14T17:03:28.246Z,6.20
2017-06-14T17:05:55.759Z,5.40
2017-06-14T17:08:23.351Z,5.60
2017-06-14T17:10:50.883Z,4.93
2017-06-14T17:13:18.545Z,5.50
2017-06-14T17:15:46.131Z,6.63
2017-06-14T17:18:13.706Z,5.77
2017-06-14T17:20:42.066Z,6.10
2017-06-14T17:23:09.547Z,6.40
2017-06-14T17:25:37.814Z,7.73
2017-06-14T17:28:05.322Z,6.37
2017-06-14T17:30:32.823Z,5.70
2017-06-14T17:33:01.211Z,6.00
2017-06-14T17:35:29.561Z,5.77
2017-06-14T17:37:57.226Z,6.17
2017-06-14T17:40:25.600Z,6.27
2017-06-14T17:42:53.230Z,5.80
2017-06-14T17:45:20.741Z,6.90
2017-06-14T17:47:48.363Z,5.53
2017-06-14T17:50:16.088Z,5.70
2017-06-14T17:52:43.658Z,6.20
2017-06-14T17:55:11.135Z,5.03
2017-06-14T17:57:38.661Z,5.93
2017-06-14T18:00:06.254Z,5.90
2017-06-14T18:02:33.908Z,6.17
2017-06-14T18:05:01.665Z,6.10
2017-06-14T18:07:29.198Z,7.20
2017-06-14T18:09:57.003Z,6.23
2017-06-14T18:12:25.031Z,5.97
2017-06-14T18:14:52.782Z,4.90
2017-06-14T18:17:21.829Z,5.80
2017-06-14T18:19:49.491Z,4.83
2017-06-14T18:22:17.229Z,6.10
2017-06-14T18:24:45.574Z,5.37
2017-06-14T18:27:13.331Z,5.60
2017-06-14T18:29:41.038Z,5.67
2017-06-14T18:32:09.428Z,5.33
2017-06-14T18:34:36.930Z,5.43
2017-06-14T18:37:04.610Z,4.93
2017-06-14T18:39:32.279Z,5.50
2017-06-14T18:42:00.642Z,7.53
2017-06-14T18:44:28.306Z,4.70
2017-06-14T18:46:55.875Z,5.00
2017-06-14T18:49:24.211Z,4.80
2017-06-14T18:51:51.706Z,4.53
2017-06-14T18:54:19.955Z,5.60
2017-06-14T18:56:47.700Z,6.70
2017-06-14T18:59:15.267Z,5.53
2017-06-14T19:01:42.818Z,6.53
2017-06-14T19:04:11.197Z,5.13
2017-06-14T19:06:38.703Z,4.70
2017-06-14T19:09:06.715Z,4.60
2017-06-14T19:11:34.293Z,5.20
2017-06-14T19:14:01.869Z,5.57
2017-06-14T19:16:29.401Z,6.07
2017-06-14T19:18:56.886Z,5.07
2017-06-14T19:21:28.354Z,5.73
2017-06-14T19:24:12.864Z,5.90
2017-06-14T19:26:46.934Z,7.03
2017-06-14T19:29:14.523Z,5.23
2017-06-14T19:31:42.034Z,7.63
2017-06-14T19:34:12.390Z,5.20
2017-06-14T19:36:45.917Z,6.03
2017-06-14T19:39:13.530Z,6.67
2017-06-14T19:41:41.127Z,5.23
2017-06-14T19:44:09.403Z,5.63
2017-06-14T19:46:37.638Z,7.40
2017-06-14T19:49:05.114Z,5.97
2017-06-14T19:51:33.371Z,6.37
2017-06-14T19:54:00.906Z,6.70
2017-06-14T19:56:28.496Z,7.07
2017-06-14T19:58:56.047Z,5.87
2017-06-14T20:01:23.688Z,8.13
2017-06-14T20:03:51.396Z,6.30
2017-06-14T20:06:18.986Z,6.83
2017-06-14T20:08:46.512Z,7.00
2017-06-14T20:11:14.022Z,6.50
2017-06-14T20:13:41.542Z,7.37
2017-06-14T20:16:09.075Z,7.10
2017-06-14T20:18:36.818Z,7.83
2017-06-14T20:21:05.143Z,6.53
2017-06-14T20:23:32.643Z,6.30
2017-06-14T20:26:00.115Z,5.90
2017-06-14T20:28:28.371Z,6.60
2017-06-14T20:30:56.612Z,5.90
2017-06-14T20:33:24.112Z,6.87
2017-06-14T20:35:52.354Z,5.97
2017-06-14T20:38:19.843Z,6.70
2017-06-14T20:40:47.319Z,6.37
2017-06-14T20:43:14.810Z,6.47
2017-06-14T20:45:42.287Z,6.23
2017-06-14T20:48:09.766Z,6.13
2017-06-14T20:50:37.263Z,6.80
2017-06-14T20:53:04.739Z,7.80
2017-06-14T20:55:32.242Z,6.80
2017-06-14T20:57:59.723Z,6.70
2017-06-14T21:00:27.212Z,6.63
2017-06-14T21:02:54.683Z,7.00
2017-06-14T21:05:22.961Z,6.80
2017-06-14T21:07:51.199Z,6.40
2017-06-14T21:10:19.130Z,6.57
2017-06-14T21:12:46.622Z,6.53
2017-06-14T21:15:14.086Z,6.80
2017-06-14T21:17:41.650Z,6.70
2017-06-14T21:20:09.887Z,6.30
2017-06-14T21:22:37.378Z,7.27
2017-06-14T21:25:05.642Z,6.77
2017-06-14T21:27:33.140Z,6.90
2017-06-14T21:30:00.611Z,6.20
2017-06-14T21:32:28.105Z,6.40
2017-06-14T21:34:56.363Z,5.90
2017-06-14T21:37:23.861Z,5.77
2017-06-14T21:39:51.334Z,7.20
2017-06-14T21:42:18.823Z,6.37
2017-06-14T21:44:46.323Z,6.33
2017-06-14T21:47:13.802Z,6.80
2017-06-14T21:49:41.303Z,6.53
2017-06-14T21:52:08.782Z,5.57
2017-06-14T21:54:36.289Z,5.93
2017-06-14T21:57:03.763Z,5.70
2017-06-14T21:59:31.257Z,5.47
2017-06-14T22:01:58.728Z,6.23
2017-06-14T22:04:26.234Z,6.57
2017-06-14T22:06:53.710Z,6.33
2017-06-14T22:09:21.196Z,6.20
2017-06-14T22:11:48.697Z,5.77
2017-06-14T22:14:16.191Z,9.40
2017-06-14T22:16:43.690Z,6.43
2017-06-14T22:19:11.159Z,6.33
2017-06-14T22:21:38.659Z,5.73
2017-06-14T22:24:06.371Z,6.77
2017-06-14T22:26:33.860Z,7.07
2017-06-14T22:29:01.331Z,6.93
2017-06-14T22:31:28.862Z,6.93
2017-06-14T22:33:56.343Z,6.57
2017-06-14T22:36:23.835Z,6.80
2017-06-14T22:38:51.329Z,6.83
2017-06-14T22:41:18.852Z,7.63
2017-06-14T22:43:46.328Z,6.73
2017-06-14T22:46:13.805Z,6.70
2017-06-14T22:48:41.304Z,10.20
2017-06-14T22:51:08.786Z,6.77
2017-06-14T22:53:37.055Z,5.73
2017-06-14T22:56:04.530Z,6.40
2017-06-14T22:58:32.039Z,6.87
2017-06-14T23:00:59.512Z,7.07
2017-06-14T23:03:27.015Z,8.00
2017-06-14T23:05:54.495Z,7.37
2017-06-14T23:08:22.002Z,6.60
2017-06-14T23:10:49.471Z,7.93
2017-06-14T23:13:16.963Z,7.20
2017-06-14T23:15:44.459Z,6.30
2017-06-14T23:18:12.707Z,6.43
2017-06-14T23:20:40.195Z,7.37
2017-06-14T23:23:07.670Z,7.13
2017-06-14T23:25:35.162Z,6.87
2017-06-14T23:28:02.638Z,6.23
2017-06-14T23:30:30.895Z,6.63
2017-06-14T23:32:58.373Z,7.67
2017-06-14T23:35:26.631Z,7.50
2017-06-14T23:37:54.116Z,9.97
2017-06-14T23:40:21.625Z,6.40
2017-06-14T23:42:49.097Z,7.80
2017-06-14T23:45:17.339Z,6.57
2017-06-14T23:47:44.839Z,7.60
2017-06-14T23:50:13.081Z,6.60
2017-06-14T23:52:40.571Z,7.20
2017-06-14T23:55:08.811Z,7.23
2017-06-14T23:57:36.327Z,6.27
